createdAt,value
2017-06-27T05:16:14.424Z,70.16
2017-06-27T05:18:43.159Z,70.32
2017-06-27T05:21:11.950Z,0.00
2017-06-27T05:35:57.340Z,0.00
2017-06-27T14:44:15.851Z,100.00
2017-06-27T14:49:11.627Z,100.00
2017-06-27T14:51:39.977Z,100.00
2017-06-27T14:59:03.179Z,100.00
2017-06-27T15:04:18.610Z,0.00
2017-06-27T15:13:57.421Z,46.15
2017-06-27T15:16:26.894Z,46.21
2017-06-27T15:18:56.359Z,47.50
2017-06-27T15:21:25.810Z,48.88
2017-06-27T15:23:55.384Z,49.06
2017-06-27T15:26:24.825Z,50.53
2017-06-27T15:28:54.496Z,50.58
2017-06-27T15:31:23.973Z,51.29
2017-06-27T15:33:54.002Z,51.43
2017-06-27T15:36:23.731Z,50.85
2017-06-27T15:38:53.536Z,51.21
2017-06-27T15:41:23.386Z,51.57
2017-06-27T15:43:52.825Z,50.98
2017-06-27T15:46:22.419Z,51.51
2017-06-27T15:48:51.865Z,52.02
2017-06-27T15:51:21.323Z,49.91
2017-06-27T15:53:50.786Z,49.63
2017-06-27T15:56:20.343Z,50.39
2017-06-27T15:58:49.805Z,49.33
2017-06-27T16:01:19.277Z,48.82
2017-06-27T16:03:48.744Z,44.84
2017-06-27T16:06:18.196Z,43.22
2017-06-27T16:08:48.507Z,42.91
2017-06-27T16:11:17.965Z,43.15
2017-06-27T16:13:47.412Z,43.32
2017-06-27T16:16:16.877Z,44.53
2017-06-27T16:18:46.354Z,43.45
2017-06-27T16:21:15.789Z,44.12
2017-06-27T16:23:45.252Z,43.40
2017-06-27T16:26:14.703Z,42.05
2017-06-27T16:28:44.190Z,39.97
2017-06-27T16:31:13.650Z,39.46
2017-06-27T16:33:43.131Z,36.78
2017-06-27T16:36:12.623Z,35.64
2017-06-27T16:38:42.131Z,34.91
2017-06-27T16:41:11.587Z,33.80
2017-06-27T16:43:41.025Z,33.21
2017-06-27T16:46:10.477Z,32.74
2017-06-27T16:48:39.929Z,29.34
2017-06-27T16:51:09.387Z,29.97
2017-06-27T16:53:38.835Z,28.38
2017-06-27T16:56:08.281Z,26.72
2017-06-27T16:58:38.657Z,29.91
2017-06-27T17:01:08.109Z,31.19
2017-06-27T17:03:37.213Z,33.79
2017-06-27T17:06:06.733Z,33.43
2017-06-27T17:08:36.170Z,35.02
2017-06-27T17:11:05.641Z,34.31
2017-06-27T17:13:35.095Z,35.95
2017-06-27T17:16:04.541Z,36.31
2017-06-27T17:18:34.018Z,36.11
2017-06-27T17:21:03.488Z,37.44
2017-06-27T17:23:32.976Z,37.38
2017-06-27T17:26:02.422Z,37.60
2017-06-27T17:28:31.873Z,37.92
2017-06-27T17:31:01.150Z,38.69
2017-06-27T17:33:30.625Z,38.50
2017-06-27T17:36:00.257Z,39.33
2017-06-27T17:38:29.713Z,39.51
2017-06-27T17:40:59.188Z,38.69
2017-06-27T17:43:28.649Z,40.26
2017-06-27T17:45:58.252Z,38.84
2017-06-27T17:48:28.633Z,40.04
2017-06-27T17:50:58.097Z,41.16
2017-06-27T17:53:27.554Z,40.43
2017-06-27T17:55:57.016Z,40.94
2017-06-27T17:58:26.453Z,41.54
2017-06-27T18:00:55.901Z,41.92
2017-06-27T18:03:25.385Z,41.94
2017-06-27T18:05:54.981Z,42.45
2017-06-27T18:08:24.424Z,42.93
2017-06-27T18:10:53.893Z,42.41
2017-06-27T18:13:23.396Z,44.74
2017-06-27T18:15:52.846Z,45.14
2017-06-27T18:18:22.349Z,46.31
2017-06-27T18:20:51.792Z,46.05
2017-06-27T18:23:21.241Z,47.61
2017-06-27T18:25:50.800Z,47.73
2017-06-27T18:28:20.267Z,49.16
2017-06-27T18:30:49.837Z,50.91
2017-06-27T18:33:19.273Z,52.43
2017-06-27T18:35:48.726Z,53.99
2017-06-27T18:38:18.177Z,55.36
2017-06-27T18:40:47.629Z,57.33
2017-06-27T18:43:17.086Z,58.78
2017-06-27T18:45:46.533Z,59.84
2017-06-27T18:48:15.832Z,60.89
2017-06-27T18:50:45.277Z,61.81
2017-06-27T18:53:14.795Z,62.75
2017-06-27T18:55:44.252Z,63.34
2017-06-27T18:58:13.700Z,63.19
2017-06-27T19:00:43.156Z,63.97
2017-06-27T19:03:12.620Z,65.24
2017-06-27T19:05:42.087Z,65.49
2017-06-27T19:08:11.540Z,66.32
2017-06-27T19:10:41.004Z,68.66
2017-06-27T19:13:10.457Z,69.18
2017-06-27T19:15:39.932Z,69.76
2017-06-27T19:18:09.578Z,70.69
2017-06-27T19:20:39.016Z,71.92
2017-06-27T19:23:08.466Z,72.59
2017-06-27T19:25:37.764Z,72.75
2017-06-27T19:28:07.267Z,72.65
2017-06-27T19:30:36.725Z,73.17
2017-06-27T19:33:06.206Z,73.86
2017-06-27T19:35:35.664Z,74.34
2017-06-27T19:38:05.197Z,75.50
2017-06-27T19:40:34.696Z,75.60
2017-06-27T19:43:04.213Z,76.06
2017-06-27T19:45:33.666Z,76.04
2017-06-27T19:48:03.193Z,76.56
2017-06-27T19:50:32.662Z,77.04
2017-06-27T19:53:02.137Z,77.67
2017-06-27T19:55:31.645Z,77.77
2017-06-27T19:58:01.177Z,78.15
2017-06-27T20:00:30.689Z,78.20
2017-06-27T20:03:00.412Z,78.74
2017-06-27T20:05:29.854Z,78.75
2017-06-27T20:07:59.357Z,78.94
2017-06-27T20:10:28.825Z,78.83
2017-06-27T20:12:58.302Z,78.83
2017-06-27T20:15:27.775Z,79.34
2017-06-27T20:17:57.233Z,79.97
2017-06-27T20:20:26.702Z,80.08
2017-06-27T20:22:56.244Z,80.05
2017-06-27T20:25:25.694Z,80.99
2017-06-27T20:27:55.254Z,80.40
2017-06-27T20:30:24.719Z,81.20
2017-06-27T20:32:54.201Z,81.67
2017-06-27T20:35:23.704Z,81.60
2017-06-27T20:37:53.229Z,81.81
2017-06-27T20:40:22.743Z,82.13
2017-06-27T20:45:30.984Z,82.89
2017-06-27T20:48:00.447Z,83.05
2017-06-27T20:50:30.021Z,83.11
2017-06-27T20:53:00.263Z,83.40
2017-06-27T20:55:29.718Z,83.40
2017-06-27T20:57:59.258Z,83.31
2017-06-27T21:00:28.715Z,83.34
2017-06-27T21:02:58.190Z,83.68
2017-06-27T21:05:27.696Z,83.75
2017-06-27T21:07:57.146Z,84.27
2017-06-27T21:10:26.655Z,84.70
2017-06-27T21:12:56.188Z,84.51
2017-06-27T21:15:25.627Z,84.80
2017-06-27T21:17:55.099Z,84.83
2017-06-27T21:20:24.594Z,85.05
2017-06-27T21:22:54.048Z,85.09
2017-06-27T21:25:23.554Z,85.06
2017-06-27T21:27:53.034Z,84.83
2017-06-27T21:30:22.557Z,84.84
2017-06-27T21:32:52.018Z,84.95
2017-06-27T21:35:21.527Z,85.75
2017-06-27T21:37:51.070Z,86.02
2017-06-27T21:40:20.562Z,84.70
2017-06-27T21:42:50.034Z,83.31
2017-06-27T21:45:19.532Z,83.00
2017-06-27T21:47:48.995Z,83.11
2017-06-27T21:50:18.500Z,83.68
2017-06-27T21:52:47.950Z,84.35
2017-06-27T21:55:17.441Z,85.08
2017-06-27T21:57:46.902Z,85.38
2017-06-27T22:00:16.416Z,85.61
2017-06-27T22:02:45.705Z,85.53
2017-06-27T22:05:15.198Z,85.55
2017-06-27T22:07:44.648Z,85.56
2017-06-27T22:10:14.157Z,85.80
2017-06-27T22:12:43.653Z,85.81
2017-06-27T22:15:13.146Z,85.86
2017-06-27T22:17:42.598Z,85.68
2017-06-27T22:20:12.098Z,85.69
2017-06-27T22:22:41.374Z,85.89
2017-06-27T22:25:10.921Z,86.27
2017-06-27T22:27:40.359Z,86.36
2017-06-27T22:30:09.865Z,86.17
2017-06-27T22:32:39.312Z,86.36
2017-06-27T22:35:08.949Z,86.50
2017-06-27T22:37:38.393Z,86.64
2017-06-27T22:40:07.922Z,86.86
2017-06-27T22:42:37.395Z,86.97
2017-06-27T22:45:06.904Z,87.04
2017-06-27T22:47:36.379Z,86.83
2017-06-27T22:50:05.868Z,86.66
2017-06-27T22:52:35.334Z,86.63
2017-06-27T22:55:04.851Z,87.04
2017-06-27T22:57:34.318Z,87.20
2017-06-27T23:00:03.789Z,87.39
2017-06-27T23:02:33.069Z,87.03
2017-06-27T23:05:02.583Z,86.18
2017-06-27T23:07:32.035Z,85.89
2017-06-27T23:10:01.670Z,85.57
2017-06-27T23:12:31.121Z,85.36
2017-06-27T23:15:00.585Z,85.75
2017-06-27T23:17:30.052Z,85.87
2017-06-27T23:20:00.193Z,85.57
2017-06-27T23:22:29.365Z,84.87
2017-06-27T23:24:58.792Z,85.00
2017-06-27T23:27:28.353Z,84.75
2017-06-27T23:29:57.782Z,84.17
2017-06-27T23:32:27.223Z,83.95
2017-06-27T23:34:56.738Z,83.45
2017-06-27T23:37:26.176Z,83.05
2017-06-27T23:39:55.625Z,83.70
2017-06-27T23:42:25.074Z,84.20
2017-06-27T23:44:54.534Z,84.42
2017-06-27T23:47:24.081Z,84.54
2017-06-27T23:49:53.648Z,84.48
2017-06-27T23:52:23.128Z,83.89
2017-06-27T23:54:52.585Z,84.07
2017-06-27T23:57:22.071Z,84.12
2017-06-27T23:59:51.518Z,83.66
